createdAt,value
2017-11-29T00:00:50.079Z,9.27
2017-11-29T00:03:16.315Z,8.00
2017-11-29T00:05:42.400Z,7.97
2017-11-29T00:08:08.556Z,9.07
2017-11-29T00:10:34.702Z,9.50
2017-11-29T00:13:00.810Z,9.20
2017-11-29T00:15:27.000Z,8.43
2017-11-29T00:17:53.220Z,7.20
2017-11-29T00:20:19.353Z,7.33
2017-11-29T00:22:45.439Z,7.20
2017-11-29T00:25:11.479Z,7.90
2017-11-29T00:27:37.656Z,7.60
2017-11-29T00:30:04.008Z,7.40
2017-11-29T00:32:30.129Z,6.27
2017-11-29T00:34:56.262Z,8.30
2017-11-29T00:37:22.323Z,8.30
2017-11-29T00:39:48.445Z,7.80
2017-11-29T00:42:14.530Z,7.00
2017-11-29T00:44:40.850Z,7.60
2017-11-29T00:47:06.957Z,7.60
2017-11-29T00:49:33.173Z,8.30
2017-11-29T00:51:59.295Z,7.83
2017-11-29T00:54:25.426Z,8.00
2017-11-29T00:56:51.541Z,7.80
2017-11-29T00:59:17.705Z,8.23
2017-11-29T01:01:43.942Z,7.87
2017-11-29T01:04:10.111Z,7.87
2017-11-29T01:06:36.289Z,7.10
2017-11-29T01:09:02.361Z,7.97
2017-11-29T01:11:28.479Z,7.87
2017-11-29T01:13:54.603Z,6.87
2017-11-29T01:16:20.727Z,7.47
2017-11-29T01:18:46.847Z,8.03
2017-11-29T01:21:13.006Z,8.33
2017-11-29T01:23:39.114Z,9.90
2017-11-29T01:26:05.282Z,8.13
2017-11-29T01:28:31.414Z,8.67
2017-11-29T01:30:57.589Z,7.23
2017-11-29T01:33:23.721Z,9.00
2017-11-29T01:35:49.842Z,8.80
2017-11-29T01:38:15.957Z,8.70
2017-11-29T01:40:42.058Z,7.83
2017-11-29T01:43:08.226Z,7.77
2017-11-29T01:45:34.322Z,8.83
2017-11-29T01:48:00.425Z,9.00
2017-11-29T01:50:26.570Z,8.20
2017-11-29T01:52:52.671Z,8.30
2017-11-29T01:55:18.790Z,7.77
2017-11-29T01:57:44.970Z,7.67
2017-11-29T02:00:11.119Z,8.10
2017-11-29T02:02:37.236Z,7.60
2017-11-29T02:05:03.564Z,7.73
2017-11-29T02:07:29.806Z,5.93
2017-11-29T02:09:55.975Z,6.67
2017-11-29T02:12:22.098Z,6.50
2017-11-29T02:14:48.209Z,6.50
2017-11-29T02:17:14.337Z,7.93
2017-11-29T02:19:40.452Z,8.40
2017-11-29T02:22:06.561Z,8.70
2017-11-29T02:24:32.654Z,7.17
2017-11-29T02:26:58.725Z,7.50
2017-11-29T02:29:24.853Z,6.40
2017-11-29T02:31:50.917Z,7.83
2017-11-29T02:34:17.090Z,7.50
2017-11-29T02:36:43.223Z,8.40
2017-11-29T02:39:09.396Z,6.47
2017-11-29T02:41:48.142Z,7.00
2017-11-29T02:44:14.295Z,8.03
2017-11-29T02:46:40.404Z,7.90
2017-11-29T02:49:06.509Z,8.10
2017-11-29T02:51:32.688Z,7.20
2017-11-29T02:53:58.752Z,7.60
2017-11-29T02:56:25.834Z,6.50
2017-11-29T02:58:51.917Z,6.57
2017-11-29T03:01:18.133Z,8.33
2017-11-29T03:03:44.202Z,9.00
2017-11-29T03:06:10.358Z,8.40
2017-11-29T03:08:36.526Z,8.33
2017-11-29T03:11:02.683Z,9.80
2017-11-29T03:13:28.885Z,8.97
2017-11-29T03:15:54.990Z,8.23
2017-11-29T03:18:21.154Z,8.17
2017-11-29T03:20:47.285Z,10.73
2017-11-29T03:23:13.470Z,10.63
2017-11-29T03:25:39.601Z,10.97
2017-11-29T03:28:05.717Z,10.63
2017-11-29T03:30:31.875Z,8.47
2017-11-29T03:32:57.965Z,9.03
2017-11-29T03:35:24.083Z,9.37
2017-11-29T03:37:50.302Z,9.47
2017-11-29T03:40:16.407Z,10.23
2017-11-29T03:42:42.544Z,9.20
2017-11-29T03:45:08.678Z,24.60
2017-11-29T03:47:34.804Z,7.27
2017-11-29T03:50:00.908Z,8.80
2017-11-29T03:52:27.049Z,8.40
2017-11-29T03:54:53.267Z,6.73
2017-11-29T03:57:19.378Z,8.37
2017-11-29T03:59:45.502Z,6.07
2017-11-29T04:02:11.669Z,8.13
2017-11-29T04:04:37.848Z,7.70
2017-11-29T04:07:04.035Z,8.43
2017-11-29T04:09:30.184Z,7.33
2017-11-29T04:11:56.298Z,7.87
2017-11-29T04:14:22.350Z,9.27
2017-11-29T04:16:48.453Z,6.00
2017-11-29T04:19:14.489Z,13.53
2017-11-29T04:21:40.641Z,9.80
2017-11-29T04:24:06.711Z,9.23
2017-11-29T04:26:32.824Z,7.93
2017-11-29T04:28:58.899Z,14.50
2017-11-29T04:31:25.017Z,14.63
2017-11-29T04:33:51.250Z,13.43
2017-11-29T04:36:17.361Z,8.00
2017-11-29T04:38:43.469Z,7.23
2017-11-29T04:41:09.610Z,12.73
2017-11-29T04:43:35.774Z,15.20
2017-11-29T04:46:01.958Z,13.90
2017-11-29T04:48:28.035Z,38.93
2017-11-29T04:50:54.154Z,13.10
2017-11-29T04:53:20.218Z,11.50
2017-11-29T04:55:46.421Z,14.50
2017-11-29T04:58:12.540Z,18.50
2017-11-29T05:00:38.608Z,16.77
2017-11-29T05:03:04.754Z,13.57
2017-11-29T05:05:30.873Z,12.27
2017-11-29T05:07:56.982Z,13.70
2017-11-29T05:10:23.097Z,13.30
2017-11-29T05:12:49.223Z,14.97
2017-11-29T05:15:15.406Z,11.57
2017-11-29T05:17:41.513Z,13.10
2017-11-29T05:20:07.645Z,15.00
2017-11-29T05:22:33.806Z,14.77
2017-11-29T05:24:59.893Z,15.77
2017-11-29T05:27:26.156Z,13.30
2017-11-29T05:29:52.279Z,14.20
2017-11-29T05:32:18.356Z,15.90
2017-11-29T05:34:44.433Z,15.30
2017-11-29T05:37:10.525Z,17.10
2017-11-29T05:39:36.614Z,14.00
2017-11-29T05:42:02.697Z,13.70
2017-11-29T05:44:28.870Z,11.30
2017-11-29T05:46:54.955Z,10.80
2017-11-29T05:49:21.038Z,11.43
2017-11-29T05:51:47.129Z,14.60
2017-11-29T05:54:13.221Z,16.53
2017-11-29T05:56:39.373Z,12.10
2017-11-29T05:59:05.521Z,12.90
2017-11-29T06:01:31.665Z,11.30
2017-11-29T06:03:57.818Z,12.87
2017-11-29T06:06:23.945Z,12.70
2017-11-29T06:08:50.065Z,14.30
2017-11-29T06:11:16.169Z,12.90
2017-11-29T06:13:42.319Z,12.80
2017-11-29T06:16:08.420Z,13.57
2017-11-29T06:18:34.575Z,14.67
2017-11-29T06:21:00.733Z,13.10
2017-11-29T06:23:26.864Z,13.90
2017-11-29T06:25:52.990Z,11.20
2017-11-29T06:28:19.039Z,12.80
2017-11-29T06:30:45.170Z,10.37
2017-11-29T06:33:11.299Z,12.00
2017-11-29T06:35:37.546Z,11.90
2017-11-29T06:38:03.653Z,10.27
2017-11-29T06:40:29.746Z,13.30
2017-11-29T06:42:55.910Z,10.70
2017-11-29T06:45:22.041Z,12.97
2017-11-29T06:47:48.121Z,13.30
2017-11-29T06:50:14.201Z,14.23
2017-11-29T06:52:40.333Z,15.30
2017-11-29T06:55:06.459Z,14.13
2017-11-29T06:57:32.567Z,15.17
2017-11-29T06:59:58.674Z,15.80
2017-11-29T07:02:25.146Z,12.50
2017-11-29T07:04:51.275Z,12.03
2017-11-29T07:07:17.335Z,12.73
2017-11-29T07:09:43.461Z,14.00
2017-11-29T07:12:09.596Z,14.27
2017-11-29T07:14:35.676Z,14.83
2017-11-29T07:17:01.785Z,16.23
2017-11-29T07:19:27.909Z,14.30
2017-11-29T07:21:54.135Z,15.63
2017-11-29T07:24:20.315Z,14.87
2017-11-29T07:26:46.446Z,17.60
2017-11-29T07:29:12.538Z,17.60
2017-11-29T07:31:38.642Z,17.57
2017-11-29T07:34:04.792Z,16.07
2017-11-29T07:36:30.938Z,15.40
2017-11-29T07:38:57.054Z,15.10
2017-11-29T07:41:23.103Z,16.37
2017-11-29T07:43:49.238Z,16.00
2017-11-29T07:46:15.355Z,16.70
2017-11-29T07:48:41.405Z,18.23
2017-11-29T07:51:07.528Z,16.60
2017-11-29T07:53:33.620Z,14.43
2017-11-29T07:55:59.799Z,14.87
2017-11-29T07:58:25.901Z,15.77
2017-11-29T08:00:52.023Z,16.07
2017-11-29T08:03:18.147Z,15.33
2017-11-29T08:05:44.392Z,15.53
2017-11-29T08:08:10.501Z,15.50
2017-11-29T08:10:36.634Z,16.63
2017-11-29T08:13:02.745Z,15.30
2017-11-29T08:15:28.813Z,14.20
2017-11-29T08:17:55.014Z,15.57
2017-11-29T08:20:21.147Z,15.23
2017-11-29T08:22:47.300Z,15.23
2017-11-29T08:25:13.467Z,16.60
2017-11-29T08:27:39.602Z,15.70
2017-11-29T08:30:05.770Z,15.43
2017-11-29T08:32:31.896Z,14.47
2017-11-29T08:34:58.016Z,15.03
2017-11-29T08:37:24.154Z,14.93
2017-11-29T08:39:50.601Z,17.03
2017-11-29T08:42:16.725Z,14.40
2017-11-29T08:44:42.810Z,15.07
2017-11-29T08:47:08.958Z,17.23
2017-11-29T08:49:35.074Z,16.87
2017-11-29T08:52:01.127Z,14.90
2017-11-29T08:54:27.226Z,15.17
2017-11-29T08:56:53.301Z,16.30
2017-11-29T08:59:19.345Z,15.43
2017-11-29T09:01:45.477Z,16.23
2017-11-29T09:04:11.619Z,17.97
2017-11-29T09:06:37.720Z,15.97
2017-11-29T09:09:03.769Z,14.70
2017-11-29T09:11:29.834Z,14.10
2017-11-29T09:13:55.849Z,16.87
2017-11-29T09:16:21.903Z,15.50
2017-11-29T09:18:48.017Z,16.93
2017-11-29T09:21:14.155Z,15.73
2017-11-29T09:23:40.289Z,17.90
2017-11-29T09:26:06.321Z,18.50
2017-11-29T09:28:32.465Z,16.53
2017-11-29T09:30:58.548Z,16.17
2017-11-29T09:33:24.630Z,17.70
2017-11-29T09:35:50.718Z,16.70
2017-11-29T09:38:16.861Z,16.23
2017-11-29T09:40:42.950Z,16.00
2017-11-29T09:43:09.037Z,14.70
2017-11-29T09:45:35.129Z,16.57
2017-11-29T09:48:01.196Z,18.10
2017-11-29T09:50:27.245Z,19.90
2017-11-29T09:52:53.373Z,16.17
2017-11-29T09:55:19.569Z,27.20
2017-11-29T09:57:45.693Z,17.87
2017-11-29T10:00:11.838Z,14.40
2017-11-29T10:02:38.009Z,15.87
2017-11-29T10:05:04.009Z,14.20
2017-11-29T10:07:30.181Z,14.33
2017-11-29T10:09:56.302Z,17.40
2017-11-29T10:12:22.403Z,14.93
2017-11-29T10:14:48.502Z,14.30
2017-11-29T10:17:14.581Z,14.33
2017-11-29T10:19:40.777Z,14.10
2017-11-29T10:22:06.877Z,12.37
2017-11-29T10:24:32.973Z,14.17
2017-11-29T10:26:59.085Z,13.80
2017-11-29T10:29:25.216Z,14.63
2017-11-29T10:31:51.286Z,13.77
2017-11-29T10:34:17.397Z,13.97
2017-11-29T10:36:43.473Z,13.43
2017-11-29T10:39:09.603Z,12.60
2017-11-29T10:41:35.698Z,13.60
2017-11-29T10:44:01.827Z,13.00
2017-11-29T10:46:27.920Z,14.37
2017-11-29T10:48:54.041Z,14.20
2017-11-29T10:51:20.154Z,11.53
2017-11-29T10:53:46.223Z,13.60
2017-11-29T10:56:12.332Z,17.13
2017-11-29T10:58:38.401Z,13.43
2017-11-29T11:01:04.562Z,14.40
2017-11-29T11:03:30.663Z,13.17
2017-11-29T11:05:56.828Z,12.23
2017-11-29T11:08:22.929Z,12.50
2017-11-29T11:10:49.011Z,13.87
2017-11-29T11:13:15.117Z,14.23
2017-11-29T11:15:41.214Z,14.30
2017-11-29T11:18:07.321Z,12.30
2017-11-29T11:20:33.393Z,13.23
2017-11-29T11:22:59.478Z,14.00
2017-11-29T11:25:25.585Z,12.27
2017-11-29T11:27:51.698Z,10.60
2017-11-29T11:30:17.871Z,13.57
2017-11-29T11:32:44.025Z,15.20
2017-11-29T11:35:10.160Z,11.90
2017-11-29T11:37:36.243Z,12.53
2017-11-29T11:40:02.395Z,11.57
2017-11-29T11:42:28.499Z,11.10
2017-11-29T11:44:54.607Z,13.50
2017-11-29T11:47:20.680Z,12.03
2017-11-29T11:49:46.818Z,10.93
2017-11-29T11:52:12.935Z,11.20
2017-11-29T11:54:39.050Z,9.57
2017-11-29T11:57:05.170Z,9.63
2017-11-29T11:59:31.252Z,11.20
2017-11-29T12:01:57.415Z,11.63
2017-11-29T12:04:23.544Z,10.90
2017-11-29T12:06:49.658Z,12.40
2017-11-29T12:09:15.769Z,10.60
2017-11-29T12:11:41.861Z,10.80
2017-11-29T12:14:07.966Z,9.90
2017-11-29T12:16:34.043Z,9.70
2017-11-29T12:19:00.142Z,8.67
2017-11-29T12:21:26.230Z,8.47
2017-11-29T12:23:52.326Z,7.70
2017-11-29T12:26:18.412Z,7.40
2017-11-29T12:28:44.545Z,7.60
2017-11-29T12:31:10.638Z,6.63
2017-11-29T12:33:36.654Z,7.37
2017-11-29T12:36:02.787Z,7.60
2017-11-29T12:38:28.900Z,7.70
2017-11-29T12:40:55.111Z,7.97
2017-11-29T12:43:21.149Z,8.40
2017-11-29T12:45:47.250Z,8.40
2017-11-29T12:48:25.625Z,9.10
2017-11-29T12:51:03.802Z,8.80
2017-11-29T12:53:29.906Z,9.60
2017-11-29T12:55:55.990Z,8.30
2017-11-29T12:58:22.148Z,12.10
2017-11-29T13:00:48.214Z,9.60
2017-11-29T13:03:14.401Z,9.30
2017-11-29T13:05:40.524Z,9.80
2017-11-29T13:08:06.646Z,9.20
2017-11-29T13:10:32.819Z,10.20
2017-11-29T13:12:59.196Z,9.53
2017-11-29T13:15:25.310Z,10.43
2017-11-29T13:17:51.426Z,10.37
2017-11-29T13:20:17.650Z,10.50
2017-11-29T13:22:43.815Z,9.93
2017-11-29T13:25:09.929Z,9.87
2017-11-29T13:27:36.419Z,10.47
2017-11-29T13:30:02.605Z,11.13
2017-11-29T13:32:29.019Z,12.03
2017-11-29T13:34:55.130Z,11.10
2017-11-29T13:37:21.197Z,13.40
2017-11-29T13:39:47.314Z,11.03
2017-11-29T13:42:13.398Z,11.03
2017-11-29T13:44:39.521Z,10.47
2017-11-29T13:47:05.637Z,12.37
2017-11-29T13:49:32.043Z,13.20
2017-11-29T13:51:58.185Z,11.90
2017-11-29T13:54:24.294Z,10.80
2017-11-29T13:56:50.465Z,11.87
2017-11-29T13:59:16.580Z,12.40
2017-11-29T14:01:43.100Z,13.37
2017-11-29T14:04:09.232Z,13.43
2017-11-29T14:06:35.309Z,14.40
2017-11-29T14:09:01.402Z,13.47
2017-11-29T14:11:27.546Z,13.30
2017-11-29T14:13:54.015Z,12.83
2017-11-29T14:16:20.122Z,13.70
2017-11-29T14:18:46.250Z,15.50
2017-11-29T14:21:12.405Z,18.30
2017-11-29T14:23:38.514Z,16.37
2017-11-29T14:26:04.609Z,17.07
2017-11-29T14:28:30.715Z,13.30
2017-11-29T14:30:57.158Z,13.80
2017-11-29T14:33:23.253Z,13.20
2017-11-29T14:35:49.333Z,12.10
2017-11-29T14:38:15.462Z,11.47
2017-11-29T14:40:41.589Z,12.27
2017-11-29T14:43:07.730Z,10.77
2017-11-29T14:45:33.884Z,12.70
2017-11-29T14:48:00.065Z,12.17
2017-11-29T14:50:26.238Z,11.67
2017-11-29T14:52:52.406Z,14.90
2017-11-29T14:55:18.851Z,14.23
2017-11-29T14:57:45.016Z,14.70
2017-11-29T15:00:11.126Z,14.47
2017-11-29T15:02:37.249Z,15.40
2017-11-29T15:05:03.581Z,14.20
2017-11-29T15:07:30.089Z,11.50
2017-11-29T15:09:56.162Z,13.60
2017-11-29T15:12:22.283Z,16.10
2017-11-29T15:14:48.408Z,17.50
2017-11-29T15:17:14.532Z,15.10
2017-11-29T15:19:40.661Z,14.30
2017-11-29T15:22:06.752Z,14.63
2017-11-29T15:24:33.605Z,13.50
2017-11-29T15:27:00.564Z,12.70
2017-11-29T15:29:26.701Z,13.27
2017-11-29T15:31:52.841Z,12.50
2017-11-29T15:34:18.961Z,13.00
2017-11-29T15:36:45.808Z,13.00
2017-11-29T15:39:11.901Z,13.13
2017-11-29T15:41:37.985Z,15.10
2017-11-29T15:44:04.177Z,13.90
2017-11-29T15:46:30.373Z,13.17
2017-11-29T15:48:56.817Z,14.90
2017-11-29T15:51:22.910Z,11.57
2017-11-29T15:53:48.991Z,12.37
2017-11-29T15:56:15.182Z,13.83
2017-11-29T15:58:41.311Z,11.73
2017-11-29T16:01:07.425Z,12.80
2017-11-29T16:03:33.498Z,12.73
2017-11-29T16:06:00.045Z,12.53
2017-11-29T16:08:26.162Z,14.27
2017-11-29T16:10:52.275Z,14.13
2017-11-29T16:13:18.754Z,13.27
2017-11-29T16:15:44.904Z,13.80
2017-11-29T16:18:11.088Z,16.80
2017-11-29T16:20:37.214Z,14.33
2017-11-29T16:23:03.662Z,14.43
2017-11-29T16:25:29.830Z,15.77
2017-11-29T16:27:56.004Z,16.47
2017-11-29T16:30:22.289Z,15.50
2017-11-29T16:32:48.413Z,16.83
2017-11-29T16:35:14.921Z,16.80
2017-11-29T16:37:41.071Z,15.90
2017-11-29T16:40:07.656Z,15.43
2017-11-29T16:42:33.804Z,15.20
2017-11-29T16:45:00.407Z,16.97
2017-11-29T16:47:26.595Z,14.20
2017-11-29T16:49:53.582Z,13.70
2017-11-29T16:52:20.122Z,13.83
2017-11-29T16:54:46.291Z,17.50
2017-11-29T16:57:12.437Z,17.00
2017-11-29T16:59:38.557Z,17.17
2017-11-29T17:02:04.723Z,15.87
2017-11-29T17:04:31.284Z,15.37
2017-11-29T17:06:57.424Z,15.10
2017-11-29T17:09:23.547Z,13.93
2017-11-29T17:11:49.748Z,15.70
2017-11-29T17:14:15.890Z,15.87
2017-11-29T17:16:42.029Z,16.97
2017-11-29T17:19:08.172Z,17.03
2017-11-29T17:21:34.346Z,16.60
2017-11-29T17:24:00.541Z,18.43
2017-11-29T17:26:26.607Z,15.40
2017-11-29T17:28:52.777Z,15.67
2017-11-29T17:31:18.917Z,17.07
2017-11-29T17:33:45.439Z,15.63
2017-11-29T17:36:11.626Z,17.80
2017-11-29T17:38:37.772Z,15.10
2017-11-29T17:41:04.288Z,16.27
2017-11-29T17:43:30.631Z,16.50
2017-11-29T17:45:56.737Z,16.70
2017-11-29T17:48:22.916Z,17.80
2017-11-29T17:50:49.022Z,18.17
2017-11-29T17:53:15.260Z,17.53
2017-11-29T17:55:41.422Z,25.23
2017-11-29T17:58:07.618Z,30.10
2017-11-29T18:00:33.754Z,28.10
2017-11-29T18:02:59.877Z,26.20
2017-11-29T18:05:26.060Z,27.60
2017-11-29T18:07:53.262Z,25.57
2017-11-29T18:10:19.821Z,27.70
2017-11-29T18:12:45.989Z,24.27
2017-11-29T18:15:12.275Z,21.60
2017-11-29T18:17:38.427Z,26.10
2017-11-29T18:20:05.069Z,26.33
2017-11-29T18:22:31.251Z,27.30
2017-11-29T18:24:57.467Z,25.83
2017-11-29T18:27:23.590Z,25.53
2017-11-29T18:29:49.766Z,32.77
2017-11-29T18:32:15.994Z,24.43
2017-11-29T18:34:42.244Z,22.03
2017-11-29T18:37:08.316Z,20.40
2017-11-29T18:39:34.423Z,20.60
2017-11-29T18:42:00.590Z,21.17
2017-11-29T18:44:27.506Z,18.67
2017-11-29T18:46:53.589Z,21.03
2017-11-29T18:49:19.677Z,18.60
2017-11-29T18:51:45.780Z,21.60
2017-11-29T18:54:11.860Z,23.50
2017-11-29T18:56:38.067Z,20.80
2017-11-29T18:59:04.222Z,18.63
2017-11-29T19:01:30.419Z,20.90
2017-11-29T19:03:56.576Z,26.13
2017-11-29T19:06:22.715Z,24.47
2017-11-29T19:08:48.847Z,27.47
2017-11-29T19:11:15.046Z,26.70
2017-11-29T19:13:41.227Z,24.43
2017-11-29T19:16:07.382Z,27.50
2017-11-29T19:18:33.665Z,22.80
2017-11-29T19:20:59.858Z,21.33
2017-11-29T19:23:26.017Z,19.80
2017-11-29T19:25:52.186Z,20.90
2017-11-29T19:28:18.347Z,19.87
2017-11-29T19:30:44.526Z,19.87
2017-11-29T19:33:10.688Z,17.57
2017-11-29T19:35:36.871Z,16.43
2017-11-29T19:38:03.025Z,15.27
2017-11-29T19:40:29.228Z,17.30
2017-11-29T19:42:55.454Z,16.67
2017-11-29T19:45:22.052Z,16.93
2017-11-29T19:47:49.354Z,19.50
2017-11-29T19:50:15.528Z,17.90
2017-11-29T19:52:41.850Z,22.27
2017-11-29T19:55:08.076Z,20.57
2017-11-29T19:57:34.656Z,17.77
2017-11-29T20:00:00.906Z,18.67
2017-11-29T20:02:27.225Z,15.83
2017-11-29T20:04:53.456Z,16.57
2017-11-29T20:07:19.729Z,14.87
2017-11-29T20:09:46.049Z,14.67
2017-11-29T20:12:12.290Z,14.90
2017-11-29T20:14:40.668Z,16.03
2017-11-29T20:17:06.936Z,15.77
2017-11-29T20:19:33.176Z,16.67
2017-11-29T20:21:59.462Z,13.90
2017-11-29T20:24:25.690Z,13.60
2017-11-29T20:26:52.024Z,14.33
2017-11-29T20:29:18.228Z,12.60
2017-11-29T20:31:44.433Z,14.50
2017-11-29T20:34:10.697Z,13.20
2017-11-29T20:36:41.669Z,16.13
2017-11-29T20:39:08.153Z,15.73
2017-11-29T20:41:34.301Z,18.00
2017-11-29T20:44:00.553Z,16.07
2017-11-29T20:46:26.682Z,13.90
2017-11-29T20:48:53.295Z,14.30
2017-11-29T20:51:20.494Z,14.20
2017-11-29T20:53:46.630Z,13.60
2017-11-29T20:56:12.778Z,12.93
2017-11-29T20:58:38.954Z,12.93
2017-11-29T21:01:05.072Z,13.23
2017-11-29T21:03:31.145Z,14.23
2017-11-29T21:05:57.291Z,12.70
2017-11-29T21:08:23.450Z,14.93
2017-11-29T21:10:49.580Z,13.10
2017-11-29T21:13:15.677Z,12.57
2017-11-29T21:15:41.794Z,12.50
2017-11-29T21:18:07.891Z,11.83
2017-11-29T21:20:34.049Z,10.47
2017-11-29T21:23:00.195Z,10.63
2017-11-29T21:25:26.246Z,13.30
2017-11-29T21:27:52.405Z,12.20
2017-11-29T21:30:18.599Z,12.53
2017-11-29T21:32:44.818Z,11.07
2017-11-29T21:35:10.951Z,10.77
2017-11-29T21:37:37.065Z,10.43
2017-11-29T21:40:03.516Z,9.80
2017-11-29T21:42:29.661Z,9.80
2017-11-29T21:44:56.168Z,11.10
2017-11-29T21:47:22.266Z,11.00
2017-11-29T21:49:48.377Z,11.63
2017-11-29T21:52:14.433Z,11.23
2017-11-29T21:54:40.626Z,12.30
2017-11-29T21:57:06.717Z,11.43
2017-11-29T21:59:32.959Z,11.80
2017-11-29T22:01:59.140Z,10.10
2017-11-29T22:04:25.269Z,13.40
2017-11-29T22:06:51.402Z,11.87
2017-11-29T22:09:17.555Z,11.07
2017-11-29T22:11:43.721Z,10.60
2017-11-29T22:14:09.794Z,11.33
2017-11-29T22:16:35.939Z,10.93
2017-11-29T22:19:02.078Z,10.33
2017-11-29T22:21:28.246Z,10.60
2017-11-29T22:23:54.446Z,11.10
2017-11-29T22:26:20.529Z,12.00
2017-11-29T22:28:46.608Z,17.67
2017-11-29T22:31:12.821Z,15.47
2017-11-29T22:33:38.853Z,12.20
2017-11-29T22:36:05.017Z,13.93
2017-11-29T22:38:31.117Z,11.37
2017-11-29T22:40:57.233Z,12.43
2017-11-29T22:43:23.345Z,11.77
2017-11-29T22:45:49.492Z,11.40
2017-11-29T22:48:15.616Z,12.63
2017-11-29T22:50:41.716Z,12.70
2017-11-29T22:53:07.791Z,14.20
2017-11-29T22:55:33.889Z,13.90
2017-11-29T22:58:00.028Z,14.97
2017-11-29T23:00:27.041Z,13.07
2017-11-29T23:02:53.197Z,15.33
2017-11-29T23:05:19.282Z,10.57
2017-11-29T23:07:45.453Z,10.87
2017-11-29T23:10:11.585Z,11.63
2017-11-29T23:12:37.698Z,10.10
2017-11-29T23:15:03.949Z,10.50
2017-11-29T23:17:30.062Z,11.70
2017-11-29T23:19:56.217Z,9.47
2017-11-29T23:22:22.590Z,8.50
2017-11-29T23:24:48.674Z,9.90
2017-11-29T23:27:14.813Z,8.53
2017-11-29T23:29:40.937Z,9.30
2017-11-29T23:32:07.063Z,9.53
2017-11-29T23:34:33.166Z,10.53
2017-11-29T23:36:59.774Z,10.40
2017-11-29T23:39:25.897Z,10.30
2017-11-29T23:41:51.994Z,10.73
2017-11-29T23:44:18.233Z,10.90
2017-11-29T23:46:44.352Z,12.87
2017-11-29T23:49:10.454Z,11.60
2017-11-29T23:51:36.584Z,12.47
2017-11-29T23:54:02.738Z,12.40
2017-11-29T23:56:28.918Z,11.03
2017-11-29T23:58:55.045Z,11.77
